Observation data for Brownfield on 07/20/2019      Previous  Date       Current Mesonet Observations  Soil Data  Daily Summary Page  Observations in Plain Language
KBWS 200500Z 18016KT 29/11 A2996 RMK A01 T02920107  RH  033%=      5-min Rain = 0
KBWS 200505Z 18016G21KT 29/11 A2996 RMK A01 T02910108  RH  033%=      5-min Rain = 0
KBWS 200510Z 18017G23KT 29/11 A2996 RMK A01 T02910108  RH  033%=      5-min Rain = 0
KBWS 200515Z 18018KT 29/11 A2996 RMK A01 T02910108  RH  033%=      5-min Rain = 0
KBWS 200520Z 18017G22KT 29/11 A2997 RMK A01 T02900109  RH  034%=      5-min Rain = 0
KBWS 200525Z 18017G22KT 29/11 A2997 RMK A01 T02890110  RH  034%=      5-min Rain = 0
KBWS 200530Z 18017KT 29/11 A2997 RMK A01 T02880110  RH  034%=      5-min Rain = 0
KBWS 200535Z 18016KT 29/11 A2997 RMK A01 T02870110  RH  034%=      5-min Rain = 0
KBWS 200540Z 18016G21KT 29/11 A2997 RMK A01 T02850110  RH  035%=      5-min Rain = 0
KBWS 200545Z 18015KT 29/11 A2997 RMK A01 T02850111  RH  035%=      5-min Rain = 0
KBWS 200550Z 18015KT 28/11 A2997 RMK A01 T02830112  RH  036%=      5-min Rain = 0
KBWS 200555Z 18015KT 28/11 A2997 RMK A01 T02820113  RH  036%=      5-min Rain = 0
KBWS 200600Z 18015KT 28/11 A2997 RMK A01 T02810114  RH  037%=      5-min Rain = 0
KBWS 200605Z 18016KT 28/12 A2997 RMK A01 T02810115  RH  037%=      5-min Rain = 0
KBWS 200610Z 18015KT 28/12 A2997 RMK A01 T02800116  RH  038%=      5-min Rain = 0
KBWS 200615Z 18015KT 28/12 A2997 RMK A01 T02790117  RH  038%=      5-min Rain = 0
KBWS 200620Z 18015G20KT 28/12 A2997 RMK A01 T02780118  RH  039%=      5-min Rain = 0
KBWS 200625Z 18015KT 28/12 A2997 RMK A01 T02770119  RH  039%=      5-min Rain = 0
KBWS 200630Z 18014KT 28/12 A2997 RMK A01 T02770120  RH  039%=      5-min Rain = 0
KBWS 200635Z 18014G19KT 28/12 A2997 RMK A01 T02750121  RH  040%=      5-min Rain = 0
KBWS 200640Z 18015KT 28/12 A2997 RMK A01 T02750122  RH  040%=      5-min Rain = 0
KBWS 200645Z 18015G20KT 28/12 A2997 RMK A01 T02750122  RH  040%=      5-min Rain = 0
KBWS 200650Z 18014G19KT 27/12 A2997 RMK A01 T02730122  RH  041%=      5-min Rain = 0
KBWS 200655Z 18012G17KT 27/12 A2997 RMK A01 T02720123  RH  041%=      5-min Rain = 0
KBWS 200700Z 18013KT 27/12 A2997 RMK A01 T02710123  RH  042%=      5-min Rain = 0
KBWS 200705Z 18013KT 27/12 A2997 RMK A01 T02700124  RH  042%=      5-min Rain = 0
KBWS 200710Z 18013KT 27/12 A2997 RMK A01 T02700124  RH  042%=      5-min Rain = 0
KBWS 200715Z 18012KT 27/13 A2997 RMK A01 T02690125  RH  042%=      5-min Rain = 0
KBWS 200720Z 18012KT 27/13 A2997 RMK A01 T02680125  RH  043%=      5-min Rain = 0
KBWS 200725Z 18012KT 27/13 A2997 RMK A01 T02670125  RH  043%=      5-min Rain = 0
KBWS 200730Z 18012G17KT 27/13 A2997 RMK A01 T02670125  RH  043%=      5-min Rain = 0
KBWS 200735Z 18011KT 27/13 A2997 RMK A01 T02650125  RH  044%=      5-min Rain = 0
KBWS 200740Z 18011KT 26/13 A2997 RMK A01 T02640125  RH  044%=      5-min Rain = 0
KBWS 200745Z 18011KT 26/13 A2996 RMK A01 T02630126  RH  044%=      5-min Rain = 0
KBWS 200750Z 18011KT 26/13 A2997 RMK A01 T02630126  RH  044%=      5-min Rain = 0
KBWS 200755Z 18011KT 26/13 A2996 RMK A01 T02610126  RH  045%=      5-min Rain = 0
KBWS 200800Z 18011KT 26/13 A2996 RMK A01 T02600126  RH  045%=      5-min Rain = 0
KBWS 200805Z 18010KT 26/13 A2996 RMK A01 T02590126  RH  045%=      5-min Rain = 0
KBWS 200810Z 17010KT 26/13 A2996 RMK A01 T02580125  RH  046%=      5-min Rain = 0
KBWS 200815Z 17010KT 26/13 A2996 RMK A01 T02560125  RH  046%=      5-min Rain = 0
KBWS 200820Z 17009KT 25/13 A2996 RMK A01 T02540125  RH  046%=      5-min Rain = 0
KBWS 200825Z 17009KT 25/13 A2996 RMK A01 T02520126  RH  047%=      5-min Rain = 0
KBWS 200830Z 17009KT 25/13 A2996 RMK A01 T02510126  RH  048%=      5-min Rain = 0
KBWS 200835Z 17009KT 25/13 A2996 RMK A01 T02490127  RH  048%=      5-min Rain = 0
KBWS 200840Z 17008KT 25/13 A2996 RMK A01 T02490127  RH  049%=      5-min Rain = 0
KBWS 200845Z 17009KT 25/13 A2996 RMK A01 T02470127  RH  049%=      5-min Rain = 0
KBWS 200850Z 17009KT 25/13 A2996 RMK A01 T02460128  RH  050%=      5-min Rain = 0
KBWS 200855Z 17009KT 25/13 A2996 RMK A01 T02450128  RH  050%=      5-min Rain = 0
KBWS 200900Z 16008KT 24/13 A2996 RMK A01 T02430128  RH  051%=      5-min Rain = 0
KBWS 200905Z 16008KT 24/13 A2996 RMK A01 T02410128  RH  051%=      5-min Rain = 0
KBWS 200910Z 16010KT 24/13 A2996 RMK A01 T02420127  RH  051%=      5-min Rain = 0
KBWS 200915Z 16010KT 24/13 A2996 RMK A01 T02420127  RH  051%=      5-min Rain = 0
KBWS 200920Z 16010KT 24/13 A2996 RMK A01 T02420128  RH  051%=      5-min Rain = 0
KBWS 200925Z 16009KT 24/13 A2996 RMK A01 T02400128  RH  051%=      5-min Rain = 0
KBWS 200930Z 16009KT 24/13 A2996 RMK A01 T02390128  RH  052%=      5-min Rain = 0
KBWS 200935Z 16011KT 24/13 A2996 RMK A01 T02400128  RH  052%=      5-min Rain = 0
KBWS 200940Z 17010KT 24/13 A2996 RMK A01 T02400129  RH  052%=      5-min Rain = 0
KBWS 200945Z 17010KT 24/13 A2996 RMK A01 T02380130  RH  053%=      5-min Rain = 0
KBWS 200950Z 17009KT 24/13 A2996 RMK A01 T02370130  RH  053%=      5-min Rain = 0
KBWS 200955Z 17009KT 24/13 A2996 RMK A01 T02350130  RH  054%=      5-min Rain = 0
KBWS 201000Z 16009KT 23/13 A2996 RMK A01 T02340131  RH  054%=      5-min Rain = 0
KBWS 201005Z 17008KT 23/13 A2996 RMK A01 T02330131  RH  055%=      5-min Rain = 0
KBWS 201010Z 17008KT 23/13 A2996 RMK A01 T02320132  RH  055%=      5-min Rain = 0
KBWS 201015Z 16008KT 23/13 A2996 RMK A01 T02310132  RH  056%=      5-min Rain = 0
KBWS 201020Z 16008KT 23/13 A2996 RMK A01 T02300132  RH  056%=      5-min Rain = 0
KBWS 201025Z 15009KT 23/13 A2996 RMK A01 T02290132  RH  057%=      5-min Rain = 0
KBWS 201030Z 16009KT 23/13 A2996 RMK A01 T02290132  RH  057%=      5-min Rain = 0
KBWS 201035Z 16008KT 23/13 A2996 RMK A01 T02280132  RH  057%=      5-min Rain = 0
KBWS 201040Z 16008KT 23/13 A2996 RMK A01 T02270132  RH  057%=      5-min Rain = 0
KBWS 201045Z 16009KT 23/13 A2996 RMK A01 T02270133  RH  058%=      5-min Rain = 0
KBWS 201050Z 16009KT 23/13 A2996 RMK A01 T02260133  RH  058%=      5-min Rain = 0
KBWS 201055Z 16009KT 23/13 A2996 RMK A01 T02260133  RH  058%=      5-min Rain = 0
KBWS 201100Z 16009KT 23/13 A2996 RMK A01 T02260133  RH  058%=      5-min Rain = 0
KBWS 201105Z 16009KT 23/13 A2996 RMK A01 T02260133  RH  058%=      5-min Rain = 0
KBWS 201110Z 16009KT 23/13 A2996 RMK A01 T02250134  RH  059%=      5-min Rain = 0
KBWS 201115Z 17009KT 22/13 A2996 RMK A01 T02240134  RH  059%=      5-min Rain = 0
KBWS 201120Z 16010KT 22/13 A2996 RMK A01 T02240134  RH  059%=      5-min Rain = 0
KBWS 201125Z 16009KT 22/14 A2996 RMK A01 T02240135  RH  059%=      5-min Rain = 0
KBWS 201130Z 17008KT 22/14 A2996 RMK A01 T02230135  RH  060%=      5-min Rain = 0
KBWS 201135Z 17009KT 22/14 A2996 RMK A01 T02220135  RH  060%=      5-min Rain = 0
KBWS 201140Z 17008KT 22/14 A2996 RMK A01 T02220135  RH  060%=      5-min Rain = 0
KBWS 201145Z 16008KT 22/14 A2996 RMK A01 T02210135  RH  061%=      5-min Rain = 0
KBWS 201150Z 17008KT 22/14 A2996 RMK A01 T02200136  RH  062%=      5-min Rain = 0
KBWS 201155Z 17008KT 22/14 A2996 RMK A01 T02190136  RH  062%=      5-min Rain = 0
KBWS 201200Z 16007KT 22/14 A2996 RMK A01 T02190137  RH  062%=      5-min Rain = 0
KBWS 201205Z 16008KT 22/14 A2996 RMK A01 T02180137  RH  063%=      5-min Rain = 0
KBWS 201210Z 16008KT 22/14 A2996 RMK A01 T02170137  RH  063%=      5-min Rain = 0
KBWS 201215Z 17008KT 22/14 A2996 RMK A01 T02180138  RH  063%=      5-min Rain = 0
KBWS 201220Z 16008KT 22/14 A2996 RMK A01 T02200139  RH  063%=      5-min Rain = 0
KBWS 201225Z 16009KT 22/14 A2996 RMK A01 T02220140  RH  062%=      5-min Rain = 0
KBWS 201230Z 15008KT 22/14 A2997 RMK A01 T02240141  RH  062%=      5-min Rain = 0
KBWS 201235Z 16007KT 23/14 A2997 RMK A01 T02250142  RH  062%=      5-min Rain = 0
KBWS 201240Z 17007KT 23/14 A2997 RMK A01 T02250142  RH  062%=      5-min Rain = 0
KBWS 201245Z 17008KT 23/14 A2997 RMK A01 T02260143  RH  062%=      5-min Rain = 0
KBWS 201250Z 17009KT 23/14 A2997 RMK A01 T02280144  RH  062%=      5-min Rain = 0
KBWS 201255Z 17009KT 23/14 A2997 RMK A01 T02310144  RH  061%=      5-min Rain = 0
KBWS 201300Z 17009KT 23/15 A2997 RMK A01 T02330146  RH  061%=      5-min Rain = 0
KBWS 201305Z 17010KT 24/15 A2997 RMK A01 T02350146  RH  060%=      5-min Rain = 0
KBWS 201310Z 17010KT 24/15 A2997 RMK A01 T02350147  RH  060%=      5-min Rain = 0
KBWS 201315Z 17009KT 24/15 A2997 RMK A01 T02370148  RH  060%=      5-min Rain = 0
KBWS 201320Z 17010KT 24/15 A2997 RMK A01 T02400149  RH  059%=      5-min Rain = 0
KBWS 201325Z 17011KT 24/15 A2997 RMK A01 T02420149  RH  059%=      5-min Rain = 0
KBWS 201330Z 17011KT 24/15 A2997 RMK A01 T02440150  RH  058%=      5-min Rain = 0
KBWS 201335Z 17011KT 25/15 A2997 RMK A01 T02450151  RH  058%=      5-min Rain = 0
KBWS 201340Z 17012KT 25/15 A2997 RMK A01 T02490152  RH  057%=      5-min Rain = 0
KBWS 201345Z 17012KT 25/15 A2997 RMK A01 T02510154  RH  057%=      5-min Rain = 0
KBWS 201350Z 17012KT 25/16 A2997 RMK A01 T02540155  RH  057%=      5-min Rain = 0
KBWS 201355Z 17013KT 26/16 A2998 RMK A01 T02580156  RH  056%=      5-min Rain = 0
KBWS 201400Z 18015G20KT 26/16 A2998 RMK A01 T02600156  RH  055%=      5-min Rain = 0
KBWS 201405Z 18017G22KT 26/16 A2997 RMK A01 T02610156  RH  055%=      5-min Rain = 0
KBWS 201410Z 18017KT 26/16 A2997 RMK A01 T02630156  RH  054%=      5-min Rain = 0
KBWS 201415Z 18016KT 27/16 A2997 RMK A01 T02680158  RH  053%=      5-min Rain = 0
KBWS 201420Z 18018G23KT 27/16 A2997 RMK A01 T02690156  RH  052%=      5-min Rain = 0
KBWS 201425Z 18019KT 27/16 A2997 RMK A01 T02680156  RH  052%=      5-min Rain = 0
KBWS 201430Z 18016KT 27/16 A2997 RMK A01 T02710157  RH  052%=      5-min Rain = 0
KBWS 201435Z 18017KT 27/16 A2997 RMK A01 T02740156  RH  051%=      5-min Rain = 0
KBWS 201440Z 18017KT 27/16 A2997 RMK A01 T02740156  RH  051%=      5-min Rain = 0
KBWS 201445Z 18017KT 28/16 A2997 RMK A01 T02760157  RH  050%=      5-min Rain = 0
KBWS 201450Z 18017KT 28/16 A2998 RMK A01 T02760157  RH  050%=      5-min Rain = 0
KBWS 201455Z 18017KT 28/16 A2998 RMK A01 T02780157  RH  050%=      5-min Rain = 0
KBWS 201500Z 18016KT 28/16 A2998 RMK A01 T02820158  RH  049%=      5-min Rain = 0
KBWS 201505Z 18017KT 28/16 A2997 RMK A01 T02810157  RH  049%=      5-min Rain = 0
KBWS 201510Z 19017KT 28/16 A2997 RMK A01 T02820156  RH  049%=      5-min Rain = 0
KBWS 201515Z 18015G20KT 28/16 A2997 RMK A01 T02810158  RH  050%=      5-min Rain = 0
KBWS 201520Z 19015KT 29/16 A2997 RMK A01 T02880158  RH  048%=      5-min Rain = 0
KBWS 201525Z 19013KT 29/16 A2997 RMK A01 T02880159  RH  048%=      5-min Rain = 0
KBWS 201530Z 19014KT 29/16 A2997 RMK A01 T02920159  RH  047%=      5-min Rain = 0
KBWS 201535Z 18015G20KT 30/16 A2997 RMK A01 T02960158  RH  045%=      5-min Rain = 0
KBWS 201540Z 18013G18KT 30/16 A2997 RMK A01 T02950159  RH  046%=      5-min Rain = 0
KBWS 201545Z 19013KT 30/16 A2997 RMK A01 T03000158  RH  044%=      5-min Rain = 0
KBWS 201550Z 19013KT 30/16 A2997 RMK A01 T03030158  RH  043%=      5-min Rain = 0
KBWS 201555Z 19012G17KT 31/16 A2997 RMK A01 T03050158  RH  043%=      5-min Rain = 0
KBWS 201600Z 18014G20KT 31/16 A2997 RMK A01 T03070158  RH  042%=      5-min Rain = 0
KBWS 201605Z 19013KT 31/16 A2997 RMK A01 T03110157  RH  041%=      5-min Rain = 0
KBWS 201610Z 19014KT 31/16 A2997 RMK A01 T03120155  RH  040%=      5-min Rain = 0
KBWS 201615Z 20013G18KT 31/16 A2997 RMK A01 T03100156  RH  041%=      5-min Rain = 0
KBWS 201620Z 19014KT 31/15 A2997 RMK A01 T03130154  RH  040%=      5-min Rain = 0
KBWS 201625Z 20013KT 32/16 A2997 RMK A01 T03150155  RH  040%=      5-min Rain = 0
KBWS 201630Z 20013G18KT 32/16 A2997 RMK A01 T03170155  RH  039%=      5-min Rain = 0
KBWS 201635Z 19013G18KT 32/15 A2997 RMK A01 T03190154  RH  039%=      5-min Rain = 0
KBWS 201640Z 18012KT 32/15 A2997 RMK A01 T03220153  RH  038%=      5-min Rain = 0
KBWS 201645Z 20013KT 32/15 A2996 RMK A01 T03220152  RH  037%=      5-min Rain = 0
KBWS 201650Z 20013G19KT 32/15 A2997 RMK A01 T03230151  RH  037%=      5-min Rain = 0
KBWS 201655Z 20012G17KT 33/15 A2997 RMK A01 T03260151  RH  036%=      5-min Rain = 0
KBWS 201700Z 20012KT 33/15 A2997 RMK A01 T03320150  RH  035%=      5-min Rain = 0
KBWS 201705Z 20012G17KT 34/15 A2997 RMK A01 T03350150  RH  034%=      5-min Rain = 0
KBWS 201710Z 20013KT 33/15 A2997 RMK A01 T03340150  RH  035%=      5-min Rain = 0
KBWS 201715Z 19013G20KT 34/15 A2996 RMK A01 T03350150  RH  034%=      5-min Rain = 0
KBWS 201720Z 19011G16KT 33/15 A2996 RMK A01 T03330148  RH  034%=      5-min Rain = 0
KBWS 201725Z 19012KT 34/15 A2996 RMK A01 T03400149  RH  033%=      5-min Rain = 0
KBWS 201730Z 19012G18KT 34/15 A2996 RMK A01 T03430149  RH  033%=      5-min Rain = 0
KBWS 201735Z 19012G19KT 34/15 A2996 RMK A01 T03440150  RH  033%=      5-min Rain = 0
KBWS 201740Z 19010G16KT 35/15 A2996 RMK A01 T03450149  RH  032%=      5-min Rain = 0
KBWS 201745Z 19011KT 35/15 A2996 RMK A01 T03450148  RH  032%=      5-min Rain = 0
KBWS 201750Z 19012KT 35/15 A2996 RMK A01 T03470147  RH  032%=      5-min Rain = 0
KBWS 201755Z 19011KT 35/15 A2995 RMK A01 T03470146  RH  032%=      5-min Rain = 0
KBWS 201800Z 18012G17KT 35/15 A2995 RMK A01 T03510146  RH  031%=      5-min Rain = 0
KBWS 201805Z 17013KT 35/15 A2995 RMK A01 T03520146  RH  030%=      5-min Rain = 0
KBWS 201810Z 18012G17KT 36/15 A2995 RMK A01 T03570146  RH  030%=      5-min Rain = 0
KBWS 201815Z 18011G16KT 36/14 A2995 RMK A01 T03560144  RH  029%=      5-min Rain = 0
KBWS 201820Z 17011G16KT 36/15 A2995 RMK A01 T03560145  RH  030%=      5-min Rain = 0
KBWS 201825Z 18011KT 36/14 A2995 RMK A01 T03580143  RH  029%=      5-min Rain = 0
KBWS 201830Z 17012G17KT 36/14 A2994 RMK A01 T03570143  RH  029%=      5-min Rain = 0
KBWS 201835Z 17009G16KT 36/14 A2994 RMK A01 T03620142  RH  028%=      5-min Rain = 0
KBWS 201840Z 17014KT 36/14 A2994 RMK A01 T03640140  RH  027%=      5-min Rain = 0
KBWS 201845Z 17012G17KT 37/14 A2994 RMK A01 T03660140  RH  027%=      5-min Rain = 0
KBWS 201850Z 18012G18KT 37/14 A2994 RMK A01 T03660138  RH  027%=      5-min Rain = 0
KBWS 201855Z 18012KT 36/14 A2994 RMK A01 T03640137  RH  027%=      5-min Rain = 0
KBWS 201900Z 18011KT 37/14 A2994 RMK A01 T03690137  RH  026%=      5-min Rain = 0
KBWS 201905Z 16010G15KT 38/13 A2994 RMK A01 T03750133  RH  025%=      5-min Rain = 0
KBWS 201910Z 17011KT 38/13 A2994 RMK A01 T03750133  RH  025%=      5-min Rain = 0
KBWS 201915Z 18013KT 37/13 A2993 RMK A01 T03730134  RH  025%=      5-min Rain = 0
KBWS 201920Z 19012KT 37/13 A2993 RMK A01 T03730133  RH  025%=      5-min Rain = 0
KBWS 201925Z 18008G14KT 37/14 A2993 RMK A01 T03720135  RH  025%=      5-min Rain = 0
KBWS 201930Z 17010G16KT 38/14 A2993 RMK A01 T03770135  RH  025%=      5-min Rain = 0
KBWS 201935Z 19009G14KT 38/13 A2992 RMK A01 T03780132  RH  024%=      5-min Rain = 0
KBWS 201940Z 20010G16KT 38/13 A2992 RMK A01 T03780130  RH  024%=      5-min Rain = 0
KBWS 201945Z 19010G15KT 38/13 A2992 RMK A01 T03760128  RH  024%=      5-min Rain = 0
KBWS 201950Z 18011G17KT 38/13 A2992 RMK A01 T03790130  RH  024%=      5-min Rain = 0
KBWS 201955Z 20009KT 38/13 A2992 RMK A01 T03820128  RH  023%=      5-min Rain = 0
KBWS 202000Z 20012KT 39/13 A2992 RMK A01 T03910128  RH  022%=      5-min Rain = 0
KBWS 202005Z 20010G16KT 38/13 A2992 RMK A01 T03840125  RH  022%=      5-min Rain = 0
KBWS 202010Z 18009G15KT 38/13 A2991 RMK A01 T03820125  RH  022%=      5-min Rain = 0
KBWS 202015Z 16013G19KT 38/13 A2991 RMK A01 T03840128  RH  023%=      5-min Rain = 0
KBWS 202020Z 17011G17KT 38/13 A2991 RMK A01 T03820127  RH  023%=      5-min Rain = 0
KBWS 202025Z 15012G19KT 39/13 A2991 RMK A01 T03850126  RH  022%=      5-min Rain = 0
KBWS 202030Z 15012G18KT 39/12 A2991 RMK A01 T03850124  RH  022%=      5-min Rain = 0
KBWS 202035Z 15011G16KT 39/12 A299 RMK A01 T03890122  RH  021%=      5-min Rain = 0
KBWS 202040Z 15012G20KT 39/12 A299 RMK A01 T03880123  RH  022%=      5-min Rain = 0
KBWS 202045Z 13011KT 39/12 A299 RMK A01 T03860120  RH  021%=      5-min Rain = 0
KBWS 202050Z 14010G16KT 38/12 A299 RMK A01 T03840120  RH  021%=      5-min Rain = 0
KBWS 202055Z 17012G19KT 39/12 A299 RMK A01 T03880117  RH  021%=      5-min Rain = 0
KBWS 202100Z 16012G18KT 39/12 A299 RMK A01 T03910116  RH  020%=      5-min Rain = 0
KBWS 202105Z 16011G16KT 39/12 A299 RMK A01 T03870124  RH  022%=      5-min Rain = 0
KBWS 202110Z 14011G16KT 39/12 A2989 RMK A01 T03890124  RH  022%=      5-min Rain = 0
KBWS 202115Z 14010KT 39/13 A2989 RMK A01 T03880126  RH  022%=      5-min Rain = 0
KBWS 202120Z 18011G17KT 39/12 A2989 RMK A01 T03920119  RH  020%=      5-min Rain = 0
KBWS 202125Z 14010G15KT 39/12 A2989 RMK A01 T03900121  RH  021%=      5-min Rain = 0
KBWS 202130Z 15013G19KT 39/13 A2989 RMK A01 T03900125  RH  022%=      5-min Rain = 0
KBWS 202135Z 14013KT 39/12 A2988 RMK A01 T03930124  RH  021%=      5-min Rain = 0
KBWS 202140Z 15017KT 39/13 A2988 RMK A01 T03940127  RH  021%=      5-min Rain = 0
KBWS 202145Z 15012KT 39/13 A2988 RMK A01 T03890126  RH  022%=      5-min Rain = 0
KBWS 202150Z 16011KT 39/13 A2988 RMK A01 T03870127  RH  022%=      5-min Rain = 0
KBWS 202155Z 16013G21KT 39/12 A2988 RMK A01 T03890123  RH  021%=      5-min Rain = 0
KBWS 202200Z 18011G17KT 39/12 A2988 RMK A01 T03940123  RH  021%=      5-min Rain = 0
KBWS 202205Z 15015G22KT 39/12 A2988 RMK A01 T03910123  RH  021%=      5-min Rain = 0
KBWS 202210Z 16013G18KT 39/12 A2988 RMK A01 T03930119  RH  020%=      5-min Rain = 0
KBWS 202215Z 16013G18KT 39/12 A2988 RMK A01 T03940119  RH  020%=      5-min Rain = 0
KBWS 202220Z 17015G24KT 40/12 A2987 RMK A01 T03960121  RH  020%=      5-min Rain = 0
KBWS 202225Z 14014KT 39/12 A2987 RMK A01 T03920123  RH  021%=      5-min Rain = 0
KBWS 202230Z 14014G19KT 39/13 A2987 RMK A01 T03890125  RH  022%=      5-min Rain = 0
KBWS 202235Z 15014KT 39/12 A2987 RMK A01 T03920123  RH  021%=      5-min Rain = 0
KBWS 202240Z 19010G15KT 39/12 A2987 RMK A01 T03880119  RH  021%=      5-min Rain = 0
KBWS 202245Z 17008KT 39/12 A2987 RMK A01 T03910117  RH  020%=      5-min Rain = 0
KBWS 202250Z 17011G16KT 39/12 A2987 RMK A01 T03860118  RH  021%=      5-min Rain = 0
KBWS 202255Z 18015G20KT 39/12 A2987 RMK A01 T03910117  RH  020%=      5-min Rain = 0
KBWS 202300Z 18014G19KT 39/12 A2987 RMK A01 T03920117  RH  020%=      5-min Rain = 0
KBWS 202305Z 17013KT 39/12 A2987 RMK A01 T03890120  RH  021%=      5-min Rain = 0
KBWS 202310Z 14013KT 39/13 A2986 RMK A01 T03860126  RH  022%=      5-min Rain = 0
KBWS 202315Z 16013G19KT 39/12 A2986 RMK A01 T03890119  RH  021%=      5-min Rain = 0
KBWS 202320Z 15016G22KT 39/13 A2986 RMK A01 T03870125  RH  022%=      5-min Rain = 0
KBWS 202325Z 15015G22KT 39/13 A2986 RMK A01 T03870126  RH  022%=      5-min Rain = 0
KBWS 202330Z 16016KT 39/12 A2986 RMK A01 T03870124  RH  022%=      5-min Rain = 0
KBWS 202335Z 16016KT 39/12 A2986 RMK A01 T03860122  RH  022%=      5-min Rain = 0
KBWS 202340Z 16016G22KT 38/12 A2986 RMK A01 T03830120  RH  022%=      5-min Rain = 0
KBWS 202345Z 15015KT 38/12 A2986 RMK A01 T03840121  RH  022%=      5-min Rain = 0
KBWS 202350Z 15018G26KT 38/12 A2986 RMK A01 T03820122  RH  022%=      5-min Rain = 0
KBWS 202355Z 15015G20KT 38/12 A2986 RMK A01 T03800122  RH  022%=      5-min Rain = 0
KBWS 210000Z 16015KT 38/12 A2986 RMK A01 T03830122  RH  022%=      5-min Rain = 0
KBWS 210005Z 15015KT 38/12 A2986 RMK A01 T03830122  RH  022%=      5-min Rain = 0
KBWS 210010Z 15016KT 38/12 A2986 RMK A01 T03800120  RH  022%=      5-min Rain = 0
KBWS 210015Z 15016G21KT 38/12 A2986 RMK A01 T03780120  RH  022%=      5-min Rain = 0
KBWS 210020Z 15015KT 38/12 A2986 RMK A01 T03780119  RH  022%=      5-min Rain = 0
KBWS 210025Z 15016KT 38/12 A2986 RMK A01 T03760117  RH  022%=      5-min Rain = 0
KBWS 210030Z 15014G19KT 38/12 A2986 RMK A01 T03750118  RH  022%=      5-min Rain = 0
KBWS 210035Z 15016G22KT 37/12 A2986 RMK A01 T03730118  RH  022%=      5-min Rain = 0
KBWS 210040Z 14017G23KT 37/12 A2986 RMK A01 T03710118  RH  023%=      5-min Rain = 0
KBWS 210045Z 14017KT 37/12 A2986 RMK A01 T03690117  RH  023%=      5-min Rain = 0
KBWS 210050Z 14016KT 37/12 A2986 RMK A01 T03670117  RH  023%=      5-min Rain = 0
KBWS 210055Z 14017KT 37/12 A2986 RMK A01 T03660118  RH  023%=      5-min Rain = 0
KBWS 210100Z 15016KT 37/12 A2986 RMK A01 T03650118  RH  024%=      5-min Rain = 0
KBWS 210105Z 14016G21KT 36/12 A2986 RMK A01 T03630119  RH  024%=      5-min Rain = 0
KBWS 210110Z 14015KT 36/12 A2986 RMK A01 T03600120  RH  024%=      5-min Rain = 0
KBWS 210115Z 14015G20KT 36/12 A2986 RMK A01 T03590121  RH  025%=      5-min Rain = 0
KBWS 210120Z 14014KT 36/12 A2986 RMK A01 T03570122  RH  025%=      5-min Rain = 0
KBWS 210125Z 15014KT 36/12 A2986 RMK A01 T03550122  RH  025%=      5-min Rain = 0
KBWS 210130Z 15013KT 35/12 A2987 RMK A01 T03540123  RH  026%=      5-min Rain = 0
KBWS 210135Z 15013KT 35/12 A2987 RMK A01 T03510123  RH  026%=      5-min Rain = 0
KBWS 210140Z 15013KT 35/12 A2987 RMK A01 T03490124  RH  027%=      5-min Rain = 0
KBWS 210145Z 15014KT 35/13 A2987 RMK A01 T03470125  RH  027%=      5-min Rain = 0
KBWS 210150Z 15014KT 35/13 A2987 RMK A01 T03450125  RH  027%=      5-min Rain = 0
KBWS 210155Z 15013KT 34/13 A2987 RMK A01 T03440125  RH  028%=      5-min Rain = 0
KBWS 210200Z 15012KT 34/12 A2987 RMK A01 T03420124  RH  028%=      5-min Rain = 0
KBWS 210205Z 16013KT 34/12 A2987 RMK A01 T03400124  RH  028%=      5-min Rain = 0
KBWS 210210Z 15012KT 34/12 A2987 RMK A01 T03390124  RH  028%=      5-min Rain = 0
KBWS 210215Z 16012KT 34/13 A2987 RMK A01 T03360125  RH  029%=      5-min Rain = 0
KBWS 210220Z 16012KT 34/13 A2987 RMK A01 T03350125  RH  029%=      5-min Rain = 0
KBWS 210225Z 16012KT 33/13 A2987 RMK A01 T03330127  RH  030%=      5-min Rain = 0
KBWS 210230Z 16012KT 33/13 A2987 RMK A01 T03310127  RH  030%=      5-min Rain = 0
KBWS 210235Z 16012KT 33/13 A2988 RMK A01 T03300128  RH  031%=      5-min Rain = 0
KBWS 210240Z 16012KT 33/13 A2988 RMK A01 T03290129  RH  031%=      5-min Rain = 0
KBWS 210245Z 16012KT 33/13 A2988 RMK A01 T03280130  RH  031%=      5-min Rain = 0
KBWS 210250Z 16012KT 33/13 A2988 RMK A01 T03270130  RH  032%=      5-min Rain = 0
KBWS 210255Z 16013KT 33/13 A2988 RMK A01 T03250131  RH  032%=      5-min Rain = 0
KBWS 210300Z 16013KT 32/13 A2988 RMK A01 T03240131  RH  032%=      5-min Rain = 0
KBWS 210305Z 16012G17KT 32/13 A2988 RMK A01 T03230132  RH  033%=      5-min Rain = 0
KBWS 210310Z 16013G18KT 32/13 A2989 RMK A01 T03220132  RH  033%=      5-min Rain = 0
KBWS 210315Z 16013KT 32/13 A2989 RMK A01 T03220132  RH  033%=      5-min Rain = 0
KBWS 210320Z 15012KT 32/13 A2989 RMK A01 T03190133  RH  034%=      5-min Rain = 0
KBWS 210325Z 15010KT 32/13 A2989 RMK A01 T03150133  RH  034%=      5-min Rain = 0
KBWS 210330Z 15010KT 31/13 A299 RMK A01 T03120134  RH  035%=      5-min Rain = 0
KBWS 210335Z 16011KT 31/14 A299 RMK A01 T03100135  RH  036%=      5-min Rain = 0
KBWS 210340Z 16013KT 31/14 A299 RMK A01 T03100135  RH  036%=      5-min Rain = 0
KBWS 210345Z 16014KT 31/13 A299 RMK A01 T03110134  RH  035%=      5-min Rain = 0
KBWS 210350Z 16014KT 31/13 A299 RMK A01 T03110133  RH  035%=      5-min Rain = 0
KBWS 210355Z 16014G19KT 31/13 A2991 RMK A01 T03100132  RH  035%=      5-min Rain = 0
KBWS 210400Z 17015KT 31/13 A2991 RMK A01 T03100130  RH  035%=      5-min Rain = 0
KBWS 210405Z 17016KT 31/13 A2991 RMK A01 T03100128  RH  034%=      5-min Rain = 0
KBWS 210410Z 17014KT 31/13 A2992 RMK A01 T03080127  RH  034%=      5-min Rain = 0
KBWS 210415Z 17014KT 31/13 A2992 RMK A01 T03070126  RH  034%=      5-min Rain = 0
KBWS 210420Z 17014KT 31/13 A2992 RMK A01 T03060125  RH  034%=      5-min Rain = 0
KBWS 210425Z 17014KT 31/12 A2992 RMK A01 T03050124  RH  034%=      5-min Rain = 0
KBWS 210430Z 17014KT 31/12 A2992 RMK A01 T03050124  RH  034%=      5-min Rain = 0
KBWS 210435Z 17013KT 30/12 A2993 RMK A01 T03030124  RH  035%=      5-min Rain = 0
KBWS 210440Z 17012KT 30/12 A2993 RMK A01 T03010123  RH  035%=      5-min Rain = 0
KBWS 210445Z 17013KT 30/12 A2993 RMK A01 T03000123  RH  035%=      5-min Rain = 0
KBWS 210450Z 17013KT 30/12 A2993 RMK A01 T03000122  RH  035%=      5-min Rain = 0
KBWS 210455Z 17012KT 30/12 A2993 RMK A01 T02980121  RH  035%=      5-min Rain = 0

Page generated in 0.0091 seconds.